sensor_id;sensor_type;location;lat;lon;timestamp;temperature;humidity
52189;DHT22;38162;45.926;13.608;2023-07-31T00:02:14;24.40;91.50
52189;DHT22;38162;45.926;13.608;2023-07-31T00:04:40;24.40;91.40
52189;DHT22;38162;45.926;13.608;2023-07-31T00:07:06;24.40;91.40
52189;DHT22;38162;45.926;13.608;2023-07-31T00:09:33;24.30;91.30
52189;DHT22;38162;45.926;13.608;2023-07-31T00:11:59;24.30;91.50
52189;DHT22;38162;45.926;13.608;2023-07-31T00:14:25;24.30;91.80
52189;DHT22;38162;45.926;13.608;2023-07-31T00:16:50;24.30;91.90
52189;DHT22;38162;45.926;13.608;2023-07-31T00:19:16;24.20;92.00
52189;DHT22;38162;45.926;13.608;2023-07-31T00:21:42;24.20;92.20
52189;DHT22;38162;45.926;13.608;2023-07-31T00:24:07;24.20;92.30
52189;DHT22;38162;45.926;13.608;2023-07-31T00:26:33;24.20;92.40
52189;DHT22;38162;45.926;13.608;2023-07-31T00:28:59;24.20;92.40
52189;DHT22;38162;45.926;13.608;2023-07-31T00:31:24;24.10;92.40
52189;DHT22;38162;45.926;13.608;2023-07-31T00:33:50;24.10;92.50
52189;DHT22;38162;45.926;13.608;2023-07-31T00:36:16;24.10;92.40
52189;DHT22;38162;45.926;13.608;2023-07-31T00:38:43;24.10;92.40
52189;DHT22;38162;45.926;13.608;2023-07-31T00:41:09;24.00;92.30
52189;DHT22;38162;45.926;13.608;2023-07-31T00:43:35;24.00;92.30
52189;DHT22;38162;45.926;13.608;2023-07-31T00:46:00;24.00;92.20
52189;DHT22;38162;45.926;13.608;2023-07-31T00:48:26;24.00;92.30
52189;DHT22;38162;45.926;13.608;2023-07-31T00:50:52;24.00;92.30
52189;DHT22;38162;45.926;13.608;2023-07-31T00:53:18;24.00;92.40
52189;DHT22;38162;45.926;13.608;2023-07-31T00:55:44;23.90;92.30
52189;DHT22;38162;45.926;13.608;2023-07-31T00:58:10;23.90;92.20
52189;DHT22;38162;45.926;13.608;2023-07-31T01:00:36;24.00;92.20
52189;DHT22;38162;45.926;13.608;2023-07-31T01:03:02;23.90;92.00
52189;DHT22;38162;45.926;13.608;2023-07-31T01:05:49;23.90;91.90
52189;DHT22;38162;45.926;13.608;2023-07-31T01:10:54;23.90;91.90
52189;DHT22;38162;45.926;13.608;2023-07-31T01:13:21;23.90;91.60
52189;DHT22;38162;45.926;13.608;2023-07-31T01:15:47;23.90;91.50
52189;DHT22;38162;45.926;13.608;2023-07-31T01:18:13;23.90;91.30
52189;DHT22;38162;45.926;13.608;2023-07-31T01:20:42;23.90;91.20
52189;DHT22;38162;45.926;13.608;2023-07-31T01:26:12;23.90;91.00
52189;DHT22;38162;45.926;13.608;2023-07-31T01:28:52;23.90;90.60
52189;DHT22;38162;45.926;13.608;2023-07-31T01:31:26;23.90;90.50
52189;DHT22;38162;45.926;13.608;2023-07-31T01:33:56;23.90;90.50
52189;DHT22;38162;45.926;13.608;2023-07-31T01:36:23;23.90;90.60
52189;DHT22;38162;45.926;13.608;2023-07-31T01:38:49;23.90;90.60
52189;DHT22;38162;45.926;13.608;2023-07-31T01:41:18;24.00;90.70
52189;DHT22;38162;45.926;13.608;2023-07-31T01:43:47;23.90;90.60
52189;DHT22;38162;45.926;13.608;2023-07-31T01:46:13;23.90;90.70
52189;DHT22;38162;45.926;13.608;2023-07-31T01:48:39;23.90;90.80
52189;DHT22;38162;45.926;13.608;2023-07-31T01:51:04;23.90;90.90
52189;DHT22;38162;45.926;13.608;2023-07-31T01:53:31;23.90;90.80
52189;DHT22;38162;45.926;13.608;2023-07-31T01:55:57;23.90;90.80
52189;DHT22;38162;45.926;13.608;2023-07-31T01:58:23;23.90;90.70
52189;DHT22;38162;45.926;13.608;2023-07-31T02:00:49;23.80;90.60
52189;DHT22;38162;45.926;13.608;2023-07-31T02:03:14;23.80;90.60
52189;DHT22;38162;45.926;13.608;2023-07-31T02:05:49;23.80;90.60
52189;DHT22;38162;45.926;13.608;2023-07-31T02:08:15;23.80;90.60
52189;DHT22;38162;45.926;13.608;2023-07-31T02:10:41;23.80;90.60
52189;DHT22;38162;45.926;13.608;2023-07-31T02:13:07;23.80;90.70
52189;DHT22;38162;45.926;13.608;2023-07-31T02:15:33;23.80;90.80
52189;DHT22;38162;45.926;13.608;2023-07-31T02:17:59;23.80;90.80
52189;DHT22;38162;45.926;13.608;2023-07-31T02:20:24;23.80;90.80
52189;DHT22;38162;45.926;13.608;2023-07-31T02:22:50;23.70;90.80
52189;DHT22;38162;45.926;13.608;2023-07-31T02:25:16;23.70;90.80
52189;DHT22;38162;45.926;13.608;2023-07-31T02:27:42;23.70;90.80
52189;DHT22;38162;45.926;13.608;2023-07-31T02:30:08;23.70;90.80
52189;DHT22;38162;45.926;13.608;2023-07-31T02:32:34;23.70;90.90
52189;DHT22;38162;45.926;13.608;2023-07-31T02:35:00;23.70;90.90
52189;DHT22;38162;45.926;13.608;2023-07-31T02:37:26;23.60;90.90
52189;DHT22;38162;45.926;13.608;2023-07-31T02:39:54;23.60;90.90
52189;DHT22;38162;45.926;13.608;2023-07-31T02:42:20;23.60;91.00
52189;DHT22;38162;45.926;13.608;2023-07-31T02:44:45;23.60;91.00
52189;DHT22;38162;45.926;13.608;2023-07-31T02:47:11;23.60;91.00
52189;DHT22;38162;45.926;13.608;2023-07-31T02:49:37;23.50;91.00
52189;DHT22;38162;45.926;13.608;2023-07-31T02:52:03;23.50;91.00
52189;DHT22;38162;45.926;13.608;2023-07-31T02:54:28;23.50;91.10
52189;DHT22;38162;45.926;13.608;2023-07-31T02:56:54;23.60;91.10
52189;DHT22;38162;45.926;13.608;2023-07-31T02:59:20;23.50;91.00
52189;DHT22;38162;45.926;13.608;2023-07-31T03:01:46;23.50;91.00
52189;DHT22;38162;45.926;13.608;2023-07-31T03:04:12;23.50;91.00
52189;DHT22;38162;45.926;13.608;2023-07-31T03:06:37;23.50;91.00
52189;DHT22;38162;45.926;13.608;2023-07-31T03:09:03;23.50;91.00
52189;DHT22;38162;45.926;13.608;2023-07-31T03:11:29;23.50;90.90
52189;DHT22;38162;45.926;13.608;2023-07-31T03:13:54;23.50;90.90
52189;DHT22;38162;45.926;13.608;2023-07-31T03:16:20;23.50;90.90
52189;DHT22;38162;45.926;13.608;2023-07-31T03:18:46;23.40;90.90
52189;DHT22;38162;45.926;13.608;2023-07-31T03:21:12;23.40;90.90
52189;DHT22;38162;45.926;13.608;2023-07-31T03:23:38;23.40;90.90
52189;DHT22;38162;45.926;13.608;2023-07-31T03:26:07;23.40;90.90
52189;DHT22;38162;45.926;13.608;2023-07-31T03:28:33;23.40;91.00
52189;DHT22;38162;45.926;13.608;2023-07-31T03:30:58;23.40;91.00
52189;DHT22;38162;45.926;13.608;2023-07-31T03:33:25;23.40;91.00
52189;DHT22;38162;45.926;13.608;2023-07-31T03:35:51;23.40;91.00
52189;DHT22;38162;45.926;13.608;2023-07-31T03:38:17;23.40;91.00
52189;DHT22;38162;45.926;13.608;2023-07-31T03:40:43;23.40;90.90
52189;DHT22;38162;45.926;13.608;2023-07-31T03:43:08;23.40;90.90
52189;DHT22;38162;45.926;13.608;2023-07-31T03:45:34;23.40;90.90
52189;DHT22;38162;45.926;13.608;2023-07-31T03:48:00;23.40;90.80
52189;DHT22;38162;45.926;13.608;2023-07-31T03:50:26;23.30;90.70
52189;DHT22;38162;45.926;13.608;2023-07-31T03:52:52;23.30;90.70
52189;DHT22;38162;45.926;13.608;2023-07-31T03:55:18;23.40;90.70
52189;DHT22;38162;45.926;13.608;2023-07-31T03:57:44;23.40;90.70
52189;DHT22;38162;45.926;13.608;2023-07-31T04:00:10;23.40;90.70
52189;DHT22;38162;45.926;13.608;2023-07-31T04:02:36;23.30;90.60
52189;DHT22;38162;45.926;13.608;2023-07-31T04:05:01;23.40;90.60
52189;DHT22;38162;45.926;13.608;2023-07-31T04:07:27;23.40;90.60
52189;DHT22;38162;45.926;13.608;2023-07-31T04:09:53;23.30;90.50
52189;DHT22;38162;45.926;13.608;2023-07-31T04:12:19;23.40;90.60
52189;DHT22;38162;45.926;13.608;2023-07-31T04:14:44;23.40;90.50
52189;DHT22;38162;45.926;13.608;2023-07-31T04:17:10;23.40;90.50
52189;DHT22;38162;45.926;13.608;2023-07-31T04:19:36;23.40;90.50
52189;DHT22;38162;45.926;13.608;2023-07-31T04:22:01;23.30;90.50
52189;DHT22;38162;45.926;13.608;2023-07-31T04:24:27;23.40;90.60
52189;DHT22;38162;45.926;13.608;2023-07-31T04:26:53;23.40;90.60
52189;DHT22;38162;45.926;13.608;2023-07-31T04:29:19;23.30;90.60
52189;DHT22;38162;45.926;13.608;2023-07-31T04:31:47;23.30;90.70
52189;DHT22;38162;45.926;13.608;2023-07-31T04:34:13;23.30;90.60
52189;DHT22;38162;45.926;13.608;2023-07-31T04:36:38;23.30;90.60
52189;DHT22;38162;45.926;13.608;2023-07-31T04:39:04;23.30;90.60
52189;DHT22;38162;45.926;13.608;2023-07-31T04:41:30;23.30;90.60
52189;DHT22;38162;45.926;13.608;2023-07-31T04:43:55;23.30;90.50
52189;DHT22;38162;45.926;13.608;2023-07-31T04:46:21;23.40;90.50
52189;DHT22;38162;45.926;13.608;2023-07-31T04:48:47;23.40;90.40
52189;DHT22;38162;45.926;13.608;2023-07-31T04:51:12;23.40;90.40
52189;DHT22;38162;45.926;13.608;2023-07-31T04:53:39;23.40;90.30
52189;DHT22;38162;45.926;13.608;2023-07-31T04:56:04;23.40;90.20
52189;DHT22;38162;45.926;13.608;2023-07-31T04:58:30;23.40;90.10
52189;DHT22;38162;45.926;13.608;2023-07-31T05:00:56;23.40;89.90
52189;DHT22;38162;45.926;13.608;2023-07-31T05:03:22;23.50;89.60
52189;DHT22;38162;45.926;13.608;2023-07-31T05:05:47;23.50;89.60
52189;DHT22;38162;45.926;13.608;2023-07-31T05:08:13;23.50;89.90
52189;DHT22;38162;45.926;13.608;2023-07-31T05:10:39;23.50;90.00
52189;DHT22;38162;45.926;13.608;2023-07-31T05:13:05;23.50;90.20
52189;DHT22;38162;45.926;13.608;2023-07-31T05:15:30;23.50;90.10
52189;DHT22;38162;45.926;13.608;2023-07-31T05:17:56;23.50;90.00
52189;DHT22;38162;45.926;13.608;2023-07-31T05:20:22;23.50;89.90
52189;DHT22;38162;45.926;13.608;2023-07-31T05:22:48;23.60;89.90
52189;DHT22;38162;45.926;13.608;2023-07-31T05:25:13;23.60;89.90
52189;DHT22;38162;45.926;13.608;2023-07-31T05:27:39;23.60;89.50
52189;DHT22;38162;45.926;13.608;2023-07-31T05:30:05;23.60;89.00
52189;DHT22;38162;45.926;13.608;2023-07-31T05:32:31;23.70;88.70
52189;DHT22;38162;45.926;13.608;2023-07-31T05:34:57;23.70;88.30
52189;DHT22;38162;45.926;13.608;2023-07-31T05:37:23;23.70;87.90
52189;DHT22;38162;45.926;13.608;2023-07-31T05:39:49;23.70;87.70
52189;DHT22;38162;45.926;13.608;2023-07-31T05:42:15;23.80;87.40
52189;DHT22;38162;45.926;13.608;2023-07-31T05:44:44;23.80;87.30
52189;DHT22;38162;45.926;13.608;2023-07-31T05:47:09;23.90;86.90
52189;DHT22;38162;45.926;13.608;2023-07-31T05:49:35;23.90;86.30
52189;DHT22;38162;45.926;13.608;2023-07-31T05:52:01;23.90;86.30
52189;DHT22;38162;45.926;13.608;2023-07-31T05:54:27;23.90;86.20
52189;DHT22;38162;45.926;13.608;2023-07-31T05:56:56;24.00;86.00
52189;DHT22;38162;45.926;13.608;2023-07-31T05:59:25;24.00;85.90
52189;DHT22;38162;45.926;13.608;2023-07-31T06:01:51;24.00;85.60
52189;DHT22;38162;45.926;13.608;2023-07-31T06:04:17;24.00;85.50
52189;DHT22;38162;45.926;13.608;2023-07-31T06:06:43;24.10;85.50
52189;DHT22;38162;45.926;13.608;2023-07-31T06:09:08;24.10;85.60
52189;DHT22;38162;45.926;13.608;2023-07-31T06:11:34;24.20;84.80
52189;DHT22;38162;45.926;13.608;2023-07-31T06:14:00;24.20;84.40
52189;DHT22;38162;45.926;13.608;2023-07-31T06:16:26;24.20;84.40
52189;DHT22;38162;45.926;13.608;2023-07-31T06:18:52;24.30;84.60
52189;DHT22;38162;45.926;13.608;2023-07-31T06:21:18;24.30;85.00
52189;DHT22;38162;45.926;13.608;2023-07-31T06:23:44;24.30;84.60
52189;DHT22;38162;45.926;13.608;2023-07-31T06:26:09;24.40;84.60
52189;DHT22;38162;45.926;13.608;2023-07-31T06:28:35;24.40;84.30
52189;DHT22;38162;45.926;13.608;2023-07-31T06:31:01;24.50;83.50
52189;DHT22;38162;45.926;13.608;2023-07-31T06:33:27;24.50;83.30
52189;DHT22;38162;45.926;13.608;2023-07-31T06:35:53;24.60;82.50
52189;DHT22;38162;45.926;13.608;2023-07-31T06:38:24;24.60;82.30
52189;DHT22;38162;45.926;13.608;2023-07-31T06:40:50;24.70;82.90
52189;DHT22;38162;45.926;13.608;2023-07-31T06:43:15;24.70;82.80
52189;DHT22;38162;45.926;13.608;2023-07-31T06:45:41;24.70;82.80
52189;DHT22;38162;45.926;13.608;2023-07-31T06:48:07;24.80;82.50
52189;DHT22;38162;45.926;13.608;2023-07-31T06:50:33;24.80;82.30
52189;DHT22;38162;45.926;13.608;2023-07-31T06:52:58;24.80;81.80
52189;DHT22;38162;45.926;13.608;2023-07-31T06:55:25;24.90;81.50
52189;DHT22;38162;45.926;13.608;2023-07-31T06:57:53;24.90;82.30
52189;DHT22;38162;45.926;13.608;2023-07-31T07:00:21;25.00;80.90
52189;DHT22;38162;45.926;13.608;2023-07-31T07:02:47;25.00;80.30
52189;DHT22;38162;45.926;13.608;2023-07-31T07:05:14;25.10;80.10
52189;DHT22;38162;45.926;13.608;2023-07-31T07:07:40;25.10;80.20
52189;DHT22;38162;45.926;13.608;2023-07-31T07:10:07;25.20;79.30
52189;DHT22;38162;45.926;13.608;2023-07-31T07:12:33;25.20;78.80
52189;DHT22;38162;45.926;13.608;2023-07-31T07:14:59;25.20;78.70
52189;DHT22;38162;45.926;13.608;2023-07-31T07:17:26;25.30;78.60
52189;DHT22;38162;45.926;13.608;2023-07-31T07:19:52;25.40;79.50
52189;DHT22;38162;45.926;13.608;2023-07-31T07:22:18;25.40;78.60
52189;DHT22;38162;45.926;13.608;2023-07-31T07:24:44;25.40;78.10
52189;DHT22;38162;45.926;13.608;2023-07-31T07:27:10;25.50;78.00
52189;DHT22;38162;45.926;13.608;2023-07-31T07:29:37;25.50;77.90
52189;DHT22;38162;45.926;13.608;2023-07-31T07:32:04;25.60;77.10
52189;DHT22;38162;45.926;13.608;2023-07-31T07:34:29;25.60;77.30
52189;DHT22;38162;45.926;13.608;2023-07-31T07:36:55;25.70;76.30
52189;DHT22;38162;45.926;13.608;2023-07-31T07:39:21;25.70;76.90
52189;DHT22;38162;45.926;13.608;2023-07-31T07:41:47;25.70;76.70
52189;DHT22;38162;45.926;13.608;2023-07-31T07:44:13;25.70;76.70
52189;DHT22;38162;45.926;13.608;2023-07-31T07:46:39;25.80;76.80
52189;DHT22;38162;45.926;13.608;2023-07-31T07:49:05;25.80;75.90
52189;DHT22;38162;45.926;13.608;2023-07-31T07:51:31;25.90;76.20
52189;DHT22;38162;45.926;13.608;2023-07-31T07:54:00;25.90;74.40
52189;DHT22;38162;45.926;13.608;2023-07-31T07:56:26;25.90;75.10
52189;DHT22;38162;45.926;13.608;2023-07-31T07:58:53;26.00;74.30
52189;DHT22;38162;45.926;13.608;2023-07-31T08:01:19;26.00;75.30
52189;DHT22;38162;45.926;13.608;2023-07-31T08:03:46;26.10;74.50
52189;DHT22;38162;45.926;13.608;2023-07-31T08:06:12;26.10;74.70
52189;DHT22;38162;45.926;13.608;2023-07-31T08:08:38;26.20;73.90
52189;DHT22;38162;45.926;13.608;2023-07-31T08:11:05;26.20;74.10
52189;DHT22;38162;45.926;13.608;2023-07-31T08:13:31;26.20;74.40
52189;DHT22;38162;45.926;13.608;2023-07-31T08:15:56;26.20;74.60
52189;DHT22;38162;45.926;13.608;2023-07-31T08:18:34;26.20;74.20
52189;DHT22;38162;45.926;13.608;2023-07-31T08:21:03;26.30;73.60
52189;DHT22;38162;45.926;13.608;2023-07-31T08:23:29;26.30;72.50
52189;DHT22;38162;45.926;13.608;2023-07-31T08:28:31;26.30;72.90
52189;DHT22;38162;45.926;13.608;2023-07-31T08:30:57;26.40;71.90
52189;DHT22;38162;45.926;13.608;2023-07-31T08:33:38;26.40;73.30
52189;DHT22;38162;45.926;13.608;2023-07-31T08:36:10;26.40;72.70
52189;DHT22;38162;45.926;13.608;2023-07-31T08:38:38;26.50;73.00
52189;DHT22;38162;45.926;13.608;2023-07-31T08:44:29;26.50;73.30
52189;DHT22;38162;45.926;13.608;2023-07-31T08:47:04;26.50;72.80
52189;DHT22;38162;45.926;13.608;2023-07-31T08:49:37;26.50;72.50
52189;DHT22;38162;45.926;13.608;2023-07-31T08:52:18;26.50;71.50
52189;DHT22;38162;45.926;13.608;2023-07-31T08:54:44;26.60;72.20
52189;DHT22;38162;45.926;13.608;2023-07-31T08:57:19;26.60;72.50
52189;DHT22;38162;45.926;13.608;2023-07-31T08:59:52;26.60;71.80
52189;DHT22;38162;45.926;13.608;2023-07-31T09:02:19;26.60;73.60
52189;DHT22;38162;45.926;13.608;2023-07-31T09:04:45;26.60;72.30
52189;DHT22;38162;45.926;13.608;2023-07-31T09:07:37;26.70;72.10
52189;DHT22;38162;45.926;13.608;2023-07-31T09:10:05;26.70;72.70
52189;DHT22;38162;45.926;13.608;2023-07-31T09:12:41;26.70;73.00
52189;DHT22;38162;45.926;13.608;2023-07-31T09:15:36;26.80;73.70
52189;DHT22;38162;45.926;13.608;2023-07-31T09:18:55;26.80;72.90
52189;DHT22;38162;45.926;13.608;2023-07-31T09:21:25;26.80;71.90
52189;DHT22;38162;45.926;13.608;2023-07-31T09:23:55;26.80;72.30
52189;DHT22;38162;45.926;13.608;2023-07-31T09:26:35;26.80;72.10
52189;DHT22;38162;45.926;13.608;2023-07-31T09:29:04;26.80;71.40
52189;DHT22;38162;45.926;13.608;2023-07-31T09:31:48;26.80;71.20
52189;DHT22;38162;45.926;13.608;2023-07-31T09:34:14;26.80;71.50
52189;DHT22;38162;45.926;13.608;2023-07-31T09:36:44;26.70;71.40
52189;DHT22;38162;45.926;13.608;2023-07-31T09:39:11;26.70;72.50
52189;DHT22;38162;45.926;13.608;2023-07-31T09:41:42;26.70;72.40
52189;DHT22;38162;45.926;13.608;2023-07-31T09:44:07;26.70;72.80
52189;DHT22;38162;45.926;13.608;2023-07-31T09:46:36;26.70;73.20
52189;DHT22;38162;45.926;13.608;2023-07-31T09:51:31;26.80;72.30
52189;DHT22;38162;45.926;13.608;2023-07-31T09:53:57;26.80;71.80
52189;DHT22;38162;45.926;13.608;2023-07-31T09:56:23;26.80;72.60
52189;DHT22;38162;45.926;13.608;2023-07-31T09:58:49;26.80;73.50
52189;DHT22;38162;45.926;13.608;2023-07-31T10:01:15;26.80;73.70
52189;DHT22;38162;45.926;13.608;2023-07-31T10:03:42;26.90;73.30
52189;DHT22;38162;45.926;13.608;2023-07-31T10:06:11;26.90;74.00
52189;DHT22;38162;45.926;13.608;2023-07-31T10:08:38;27.00;72.60
52189;DHT22;38162;45.926;13.608;2023-07-31T10:11:05;27.00;73.00
52189;DHT22;38162;45.926;13.608;2023-07-31T10:13:33;27.00;72.40
52189;DHT22;38162;45.926;13.608;2023-07-31T10:16:00;27.10;72.80
52189;DHT22;38162;45.926;13.608;2023-07-31T10:18:26;27.20;72.50
52189;DHT22;38162;45.926;13.608;2023-07-31T10:20:53;27.10;72.60
52189;DHT22;38162;45.926;13.608;2023-07-31T10:23:20;27.20;73.50
52189;DHT22;38162;45.926;13.608;2023-07-31T10:25:47;27.20;73.90
52189;DHT22;38162;45.926;13.608;2023-07-31T10:28:14;27.30;73.40
52189;DHT22;38162;45.926;13.608;2023-07-31T10:30:40;27.30;71.50
52189;DHT22;38162;45.926;13.608;2023-07-31T10:33:07;27.30;71.80
52189;DHT22;38162;45.926;13.608;2023-07-31T10:35:33;27.40;72.50
52189;DHT22;38162;45.926;13.608;2023-07-31T10:38:11;27.40;71.90
52189;DHT22;38162;45.926;13.608;2023-07-31T10:40:37;27.40;72.50
52189;DHT22;38162;45.926;13.608;2023-07-31T10:43:03;27.40;73.30
52189;DHT22;38162;45.926;13.608;2023-07-31T10:45:37;27.50;72.30
52189;DHT22;38162;45.926;13.608;2023-07-31T10:48:03;27.60;72.70
52189;DHT22;38162;45.926;13.608;2023-07-31T10:50:37;27.60;73.40
52189;DHT22;38162;45.926;13.608;2023-07-31T10:53:03;27.70;74.00
52189;DHT22;38162;45.926;13.608;2023-07-31T10:58:06;27.80;70.50
52189;DHT22;38162;45.926;13.608;2023-07-31T11:00:32;27.90;71.80
52189;DHT22;38162;45.926;13.608;2023-07-31T11:03:03;28.00;71.70
52189;DHT22;38162;45.926;13.608;2023-07-31T11:08:28;28.10;72.00
52189;DHT22;38162;45.926;13.608;2023-07-31T11:13:30;28.20;70.60
52189;DHT22;38162;45.926;13.608;2023-07-31T11:15:56;28.20;70.80
52189;DHT22;38162;45.926;13.608;2023-07-31T11:18:23;28.20;71.90
52189;DHT22;38162;45.926;13.608;2023-07-31T11:20:48;28.30;70.90
52189;DHT22;38162;45.926;13.608;2023-07-31T11:23:17;28.20;70.50
52189;DHT22;38162;45.926;13.608;2023-07-31T11:25:43;28.30;70.70
52189;DHT22;38162;45.926;13.608;2023-07-31T11:28:14;28.30;71.10
52189;DHT22;38162;45.926;13.608;2023-07-31T11:30:42;28.40;69.70
52189;DHT22;38162;45.926;13.608;2023-07-31T11:33:09;28.40;68.00
52189;DHT22;38162;45.926;13.608;2023-07-31T11:35:46;28.50;67.40
52189;DHT22;38162;45.926;13.608;2023-07-31T11:38:24;28.50;68.50
52189;DHT22;38162;45.926;13.608;2023-07-31T11:40:51;28.50;67.90
52189;DHT22;38162;45.926;13.608;2023-07-31T11:43:18;28.50;69.00
52189;DHT22;38162;45.926;13.608;2023-07-31T11:45:50;28.50;69.40
52189;DHT22;38162;45.926;13.608;2023-07-31T11:48:24;28.50;68.30
52189;DHT22;38162;45.926;13.608;2023-07-31T11:50:51;28.50;66.80
52189;DHT22;38162;45.926;13.608;2023-07-31T11:53:37;28.50;66.90
52189;DHT22;38162;45.926;13.608;2023-07-31T11:56:04;28.50;67.40
52189;DHT22;38162;45.926;13.608;2023-07-31T11:58:33;28.50;68.10
52189;DHT22;38162;45.926;13.608;2023-07-31T12:01:00;28.60;68.70
52189;DHT22;38162;45.926;13.608;2023-07-31T12:03:27;28.60;65.70
52189;DHT22;38162;45.926;13.608;2023-07-31T12:05:53;28.60;65.40
52189;DHT22;38162;45.926;13.608;2023-07-31T12:08:21;28.70;66.40
52189;DHT22;38162;45.926;13.608;2023-07-31T12:10:51;28.70;66.90
52189;DHT22;38162;45.926;13.608;2023-07-31T12:13:25;28.70;66.20
52189;DHT22;38162;45.926;13.608;2023-07-31T12:15:56;28.80;67.00
52189;DHT22;38162;45.926;13.608;2023-07-31T12:18:27;28.90;66.40
52189;DHT22;38162;45.926;13.608;2023-07-31T12:20:57;28.90;67.30
52189;DHT22;38162;45.926;13.608;2023-07-31T12:23:29;29.00;67.00
52189;DHT22;38162;45.926;13.608;2023-07-31T12:28:27;29.00;66.20
52189;DHT22;38162;45.926;13.608;2023-07-31T12:30:57;29.10;65.60
52189;DHT22;38162;45.926;13.608;2023-07-31T12:33:24;29.10;65.00
52189;DHT22;38162;45.926;13.608;2023-07-31T12:35:50;29.10;65.30
52189;DHT22;38162;45.926;13.608;2023-07-31T12:38:17;29.10;65.00
52189;DHT22;38162;45.926;13.608;2023-07-31T12:40:43;29.20;63.60
52189;DHT22;38162;45.926;13.608;2023-07-31T12:43:09;29.20;64.20
52189;DHT22;38162;45.926;13.608;2023-07-31T12:45:35;29.20;64.10
52189;DHT22;38162;45.926;13.608;2023-07-31T12:48:01;29.20;64.20
52189;DHT22;38162;45.926;13.608;2023-07-31T12:50:30;29.30;65.30
52189;DHT22;38162;45.926;13.608;2023-07-31T12:52:57;29.30;65.10
52189;DHT22;38162;45.926;13.608;2023-07-31T12:55:26;29.40;65.80
52189;DHT22;38162;45.926;13.608;2023-07-31T12:57:52;29.40;64.20
52189;DHT22;38162;45.926;13.608;2023-07-31T13:00:18;29.50;64.00
52189;DHT22;38162;45.926;13.608;2023-07-31T13:02:44;29.50;63.50
52189;DHT22;38162;45.926;13.608;2023-07-31T13:05:09;29.50;63.00
52189;DHT22;38162;45.926;13.608;2023-07-31T13:07:36;29.50;63.10
52189;DHT22;38162;45.926;13.608;2023-07-31T13:10:02;29.50;63.00
52189;DHT22;38162;45.926;13.608;2023-07-31T13:12:28;29.50;63.40
52189;DHT22;38162;45.926;13.608;2023-07-31T13:14:54;29.50;64.10
52189;DHT22;38162;45.926;13.608;2023-07-31T13:17:20;29.50;63.20
52189;DHT22;38162;45.926;13.608;2023-07-31T13:19:46;29.60;63.50
52189;DHT22;38162;45.926;13.608;2023-07-31T13:22:12;29.70;63.90
52189;DHT22;38162;45.926;13.608;2023-07-31T13:24:37;29.70;64.20
52189;DHT22;38162;45.926;13.608;2023-07-31T13:27:03;29.70;64.10
52189;DHT22;38162;45.926;13.608;2023-07-31T13:29:29;29.70;61.90
52189;DHT22;38162;45.926;13.608;2023-07-31T13:31:56;29.70;61.80
52189;DHT22;38162;45.926;13.608;2023-07-31T13:34:21;29.70;62.60
52189;DHT22;38162;45.926;13.608;2023-07-31T13:36:47;29.70;62.60
52189;DHT22;38162;45.926;13.608;2023-07-31T13:39:13;29.70;62.00
52189;DHT22;38162;45.926;13.608;2023-07-31T13:41:39;29.70;62.80
52189;DHT22;38162;45.926;13.608;2023-07-31T13:44:04;29.70;62.50
52189;DHT22;38162;45.926;13.608;2023-07-31T13:46:30;29.70;63.80
52189;DHT22;38162;45.926;13.608;2023-07-31T13:49:00;29.70;63.00
52189;DHT22;38162;45.926;13.608;2023-07-31T13:51:27;29.80;62.50
52189;DHT22;38162;45.926;13.608;2023-07-31T13:53:53;29.80;62.20
52189;DHT22;38162;45.926;13.608;2023-07-31T13:56:19;29.80;61.40
52189;DHT22;38162;45.926;13.608;2023-07-31T13:58:45;29.80;62.00
52189;DHT22;38162;45.926;13.608;2023-07-31T14:01:10;29.80;64.00
52189;DHT22;38162;45.926;13.608;2023-07-31T14:03:36;29.80;62.90
52189;DHT22;38162;45.926;13.608;2023-07-31T14:06:02;29.80;62.90
52189;DHT22;38162;45.926;13.608;2023-07-31T14:08:28;29.80;62.80
52189;DHT22;38162;45.926;13.608;2023-07-31T14:10:55;29.90;63.50
52189;DHT22;38162;45.926;13.608;2023-07-31T14:13:21;29.90;64.40
52189;DHT22;38162;45.926;13.608;2023-07-31T14:15:46;29.90;64.90
52189;DHT22;38162;45.926;13.608;2023-07-31T14:18:12;30.00;64.30
52189;DHT22;38162;45.926;13.608;2023-07-31T14:20:38;30.00;62.80
52189;DHT22;38162;45.926;13.608;2023-07-31T14:23:04;30.00;61.70
52189;DHT22;38162;45.926;13.608;2023-07-31T14:25:30;30.00;60.60
52189;DHT22;38162;45.926;13.608;2023-07-31T14:27:55;30.00;60.60
52189;DHT22;38162;45.926;13.608;2023-07-31T14:30:21;30.00;62.60
52189;DHT22;38162;45.926;13.608;2023-07-31T14:32:47;30.00;62.30
52189;DHT22;38162;45.926;13.608;2023-07-31T14:35:13;30.00;61.50
52189;DHT22;38162;45.926;13.608;2023-07-31T14:37:44;30.00;62.00
52189;DHT22;38162;45.926;13.608;2023-07-31T14:40:11;30.00;62.50
52189;DHT22;38162;45.926;13.608;2023-07-31T14:42:38;30.00;63.30
52189;DHT22;38162;45.926;13.608;2023-07-31T14:45:05;30.00;63.50
52189;DHT22;38162;45.926;13.608;2023-07-31T14:47:31;30.00;62.60
52189;DHT22;38162;45.926;13.608;2023-07-31T14:49:58;30.00;62.30
52189;DHT22;38162;45.926;13.608;2023-07-31T14:52:24;30.10;60.50
52189;DHT22;38162;45.926;13.608;2023-07-31T14:54:50;30.10;61.10
52189;DHT22;38162;45.926;13.608;2023-07-31T14:57:16;30.10;60.40
52189;DHT22;38162;45.926;13.608;2023-07-31T14:59:42;30.00;59.00
52189;DHT22;38162;45.926;13.608;2023-07-31T15:02:09;30.10;60.80
52189;DHT22;38162;45.926;13.608;2023-07-31T15:04:35;30.00;60.10
52189;DHT22;38162;45.926;13.608;2023-07-31T15:07:01;30.00;60.50
52189;DHT22;38162;45.926;13.608;2023-07-31T15:09:27;30.00;60.50
52189;DHT22;38162;45.926;13.608;2023-07-31T15:11:53;30.00;59.70
52189;DHT22;38162;45.926;13.608;2023-07-31T15:14:20;30.00;60.10
52189;DHT22;38162;45.926;13.608;2023-07-31T15:16:45;30.00;60.20
52189;DHT22;38162;45.926;13.608;2023-07-31T15:19:11;30.00;60.80
52189;DHT22;38162;45.926;13.608;2023-07-31T15:21:38;30.00;59.30
52189;DHT22;38162;45.926;13.608;2023-07-31T15:24:03;30.00;59.60
52189;DHT22;38162;45.926;13.608;2023-07-31T15:26:29;30.00;59.70
52189;DHT22;38162;45.926;13.608;2023-07-31T15:29:06;30.00;59.80
52189;DHT22;38162;45.926;13.608;2023-07-31T15:31:41;29.90;60.00
52189;DHT22;38162;45.926;13.608;2023-07-31T15:34:07;30.00;60.40
52189;DHT22;38162;45.926;13.608;2023-07-31T15:36:33;29.90;59.40
52189;DHT22;38162;45.926;13.608;2023-07-31T15:38:59;30.00;59.90
52189;DHT22;38162;45.926;13.608;2023-07-31T15:41:25;29.90;60.80